sensor_id;sensor_type;location;lat;lon;timestamp;temperature;humidity
10121;DHT22;5100;45.176;5.714;2022-10-19T00:01:04;19.80;71.60
10121;DHT22;5100;45.176;5.714;2022-10-19T00:03:33;19.80;71.70
10121;DHT22;5100;45.176;5.714;2022-10-19T00:05:59;19.80;71.80
10121;DHT22;5100;45.176;5.714;2022-10-19T00:08:26;19.80;71.90
10121;DHT22;5100;45.176;5.714;2022-10-19T00:10:52;19.80;71.90
10121;DHT22;5100;45.176;5.714;2022-10-19T00:13:18;19.80;71.90
10121;DHT22;5100;45.176;5.714;2022-10-19T00:15:44;19.80;72.00
10121;DHT22;5100;45.176;5.714;2022-10-19T00:18:11;19.70;72.10
10121;DHT22;5100;45.176;5.714;2022-10-19T00:20:37;19.70;72.10
10121;DHT22;5100;45.176;5.714;2022-10-19T00:23:03;19.70;72.10
10121;DHT22;5100;45.176;5.714;2022-10-19T00:25:29;19.70;71.90
10121;DHT22;5100;45.176;5.714;2022-10-19T00:27:55;19.70;72.00
10121;DHT22;5100;45.176;5.714;2022-10-19T00:30:21;19.70;71.90
10121;DHT22;5100;45.176;5.714;2022-10-19T00:32:47;19.70;71.80
10121;DHT22;5100;45.176;5.714;2022-10-19T00:35:13;19.70;71.90
10121;DHT22;5100;45.176;5.714;2022-10-19T00:37:39;19.70;71.90
10121;DHT22;5100;45.176;5.714;2022-10-19T00:40:06;19.60;71.90
10121;DHT22;5100;45.176;5.714;2022-10-19T00:42:32;19.60;71.80
10121;DHT22;5100;45.176;5.714;2022-10-19T00:45:02;19.60;71.80
10121;DHT22;5100;45.176;5.714;2022-10-19T00:47:29;19.60;71.80
10121;DHT22;5100;45.176;5.714;2022-10-19T00:49:57;19.60;71.50
10121;DHT22;5100;45.176;5.714;2022-10-19T00:52:24;19.50;71.20
10121;DHT22;5100;45.176;5.714;2022-10-19T00:54:52;19.50;71.20
10121;DHT22;5100;45.176;5.714;2022-10-19T00:57:19;19.50;71.10
10121;DHT22;5100;45.176;5.714;2022-10-19T00:59:45;19.50;71.10
10121;DHT22;5100;45.176;5.714;2022-10-19T01:02:12;19.50;71.10
10121;DHT22;5100;45.176;5.714;2022-10-19T01:04:43;19.50;71.10
10121;DHT22;5100;45.176;5.714;2022-10-19T01:07:11;19.50;71.10
10121;DHT22;5100;45.176;5.714;2022-10-19T01:09:38;19.50;71.00
10121;DHT22;5100;45.176;5.714;2022-10-19T01:28:46;19.40;71.00
10121;DHT22;5100;45.176;5.714;2022-10-19T01:34:22;19.40;71.20
10121;DHT22;5100;45.176;5.714;2022-10-19T01:37:01;19.40;71.40
10121;DHT22;5100;45.176;5.714;2022-10-19T01:39:42;19.40;71.30
10121;DHT22;5100;45.176;5.714;2022-10-19T01:47:53;19.30;70.50
10121;DHT22;5100;45.176;5.714;2022-10-19T01:50:28;19.30;70.50
10121;DHT22;5100;45.176;5.714;2022-10-19T01:52:57;19.30;70.80
10121;DHT22;5100;45.176;5.714;2022-10-19T01:55:25;19.30;70.70
10121;DHT22;5100;45.176;5.714;2022-10-19T01:57:56;19.30;70.60
10121;DHT22;5100;45.176;5.714;2022-10-19T02:00:25;19.30;70.60
10121;DHT22;5100;45.176;5.714;2022-10-19T02:02:53;19.30;70.70
10121;DHT22;5100;45.176;5.714;2022-10-19T02:05:22;19.30;70.80
10121;DHT22;5100;45.176;5.714;2022-10-19T02:07:53;19.20;70.70
10121;DHT22;5100;45.176;5.714;2022-10-19T02:10:21;19.20;70.80
10121;DHT22;5100;45.176;5.714;2022-10-19T02:12:48;19.20;70.80
10121;DHT22;5100;45.176;5.714;2022-10-19T02:15:18;19.20;70.90
10121;DHT22;5100;45.176;5.714;2022-10-19T02:17:50;19.20;71.00
10121;DHT22;5100;45.176;5.714;2022-10-19T02:20:17;19.20;71.30
10121;DHT22;5100;45.176;5.714;2022-10-19T02:22:43;19.20;71.50
10121;DHT22;5100;45.176;5.714;2022-10-19T02:25:10;19.20;71.60
10121;DHT22;5100;45.176;5.714;2022-10-19T02:27:38;19.10;71.80
10121;DHT22;5100;45.176;5.714;2022-10-19T02:30:11;19.10;72.30
10121;DHT22;5100;45.176;5.714;2022-10-19T02:32:39;19.10;72.70
10121;DHT22;5100;45.176;5.714;2022-10-19T02:35:06;19.10;72.60
10121;DHT22;5100;45.176;5.714;2022-10-19T02:37:33;19.10;72.60
10121;DHT22;5100;45.176;5.714;2022-10-19T02:39:59;19.10;72.60
10121;DHT22;5100;45.176;5.714;2022-10-19T02:42:35;19.10;72.60
10121;DHT22;5100;45.176;5.714;2022-10-19T02:47:34;19.10;73.00
10121;DHT22;5100;45.176;5.714;2022-10-19T02:50:03;19.00;73.10
10121;DHT22;5100;45.176;5.714;2022-10-19T02:52:30;19.00;73.90
10121;DHT22;5100;45.176;5.714;2022-10-19T02:54:56;19.00;74.10
10121;DHT22;5100;45.176;5.714;2022-10-19T02:57:24;19.00;74.10
10121;DHT22;5100;45.176;5.714;2022-10-19T02:59:51;19.00;74.20
10121;DHT22;5100;45.176;5.714;2022-10-19T03:02:19;19.00;74.20
10121;DHT22;5100;45.176;5.714;2022-10-19T03:04:45;19.00;74.00
10121;DHT22;5100;45.176;5.714;2022-10-19T03:07:14;19.00;73.80
10121;DHT22;5100;45.176;5.714;2022-10-19T03:09:41;19.00;73.80
10121;DHT22;5100;45.176;5.714;2022-10-19T03:12:07;19.00;73.60
10121;DHT22;5100;45.176;5.714;2022-10-19T03:14:33;18.90;73.50
10121;DHT22;5100;45.176;5.714;2022-10-19T03:16:59;19.00;73.20
10121;DHT22;5100;45.176;5.714;2022-10-19T03:19:25;18.90;73.00
10121;DHT22;5100;45.176;5.714;2022-10-19T03:21:52;18.90;73.10
10121;DHT22;5100;45.176;5.714;2022-10-19T03:24:18;18.90;72.90
10121;DHT22;5100;45.176;5.714;2022-10-19T03:26:43;18.90;72.70
10121;DHT22;5100;45.176;5.714;2022-10-19T03:29:10;18.90;72.40
10121;DHT22;5100;45.176;5.714;2022-10-19T03:31:36;18.90;72.30
10121;DHT22;5100;45.176;5.714;2022-10-19T03:34:02;18.90;71.80
10121;DHT22;5100;45.176;5.714;2022-10-19T03:36:31;18.90;71.50
10121;DHT22;5100;45.176;5.714;2022-10-19T03:39:00;18.90;71.20
10121;DHT22;5100;45.176;5.714;2022-10-19T03:41:29;18.80;70.80
10121;DHT22;5100;45.176;5.714;2022-10-19T03:43:55;18.80;70.80
10121;DHT22;5100;45.176;5.714;2022-10-19T03:46:22;18.80;70.80
10121;DHT22;5100;45.176;5.714;2022-10-19T03:48:49;18.80;70.80
10121;DHT22;5100;45.176;5.714;2022-10-19T03:51:17;18.80;70.90
10121;DHT22;5100;45.176;5.714;2022-10-19T03:53:45;18.80;71.20
10121;DHT22;5100;45.176;5.714;2022-10-19T03:56:20;18.80;71.80
10121;DHT22;5100;45.176;5.714;2022-10-19T03:58:48;18.80;72.40
10121;DHT22;5100;45.176;5.714;2022-10-19T04:01:26;18.80;72.60
10121;DHT22;5100;45.176;5.714;2022-10-19T04:03:53;18.70;73.20
10121;DHT22;5100;45.176;5.714;2022-10-19T04:06:23;18.70;73.30
10121;DHT22;5100;45.176;5.714;2022-10-19T04:08:50;18.70;73.00
10121;DHT22;5100;45.176;5.714;2022-10-19T04:11:19;18.70;73.00
10121;DHT22;5100;45.176;5.714;2022-10-19T04:13:47;18.70;73.10
10121;DHT22;5100;45.176;5.714;2022-10-19T04:16:15;18.70;73.10
10121;DHT22;5100;45.176;5.714;2022-10-19T04:18:41;18.70;73.20
10121;DHT22;5100;45.176;5.714;2022-10-19T04:21:20;18.60;73.30
10121;DHT22;5100;45.176;5.714;2022-10-19T04:23:47;18.60;73.50
10121;DHT22;5100;45.176;5.714;2022-10-19T04:26:13;18.60;73.50
10121;DHT22;5100;45.176;5.714;2022-10-19T04:28:39;18.60;73.10
10121;DHT22;5100;45.176;5.714;2022-10-19T04:31:06;18.60;72.90
10121;DHT22;5100;45.176;5.714;2022-10-19T04:33:33;18.60;72.70
10121;DHT22;5100;45.176;5.714;2022-10-19T04:36:00;18.60;72.00
10121;DHT22;5100;45.176;5.714;2022-10-19T04:38:28;18.60;71.60
10121;DHT22;5100;45.176;5.714;2022-10-19T04:40:55;18.60;71.50
10121;DHT22;5100;45.176;5.714;2022-10-19T04:43:21;18.60;71.30
10121;DHT22;5100;45.176;5.714;2022-10-19T04:45:48;18.60;71.30
10121;DHT22;5100;45.176;5.714;2022-10-19T04:48:14;18.60;71.40
10121;DHT22;5100;45.176;5.714;2022-10-19T04:50:40;18.50;71.60
10121;DHT22;5100;45.176;5.714;2022-10-19T04:53:06;18.50;71.70
10121;DHT22;5100;45.176;5.714;2022-10-19T04:55:32;18.50;72.00
10121;DHT22;5100;45.176;5.714;2022-10-19T04:57:58;18.50;72.10
10121;DHT22;5100;45.176;5.714;2022-10-19T05:00:24;18.50;72.40
10121;DHT22;5100;45.176;5.714;2022-10-19T05:02:50;18.50;72.50
10121;DHT22;5100;45.176;5.714;2022-10-19T05:05:16;18.50;72.50
10121;DHT22;5100;45.176;5.714;2022-10-19T05:07:42;18.50;72.50
10121;DHT22;5100;45.176;5.714;2022-10-19T05:10:09;18.50;72.00
10121;DHT22;5100;45.176;5.714;2022-10-19T05:12:35;18.50;71.60
10121;DHT22;5100;45.176;5.714;2022-10-19T05:15:02;18.50;71.30
10121;DHT22;5100;45.176;5.714;2022-10-19T05:17:29;18.50;71.30
10121;DHT22;5100;45.176;5.714;2022-10-19T05:19:56;18.50;71.10
10121;DHT22;5100;45.176;5.714;2022-10-19T05:22:23;18.40;71.00
10121;DHT22;5100;45.176;5.714;2022-10-19T05:24:49;18.40;70.90
10121;DHT22;5100;45.176;5.714;2022-10-19T05:27:15;18.40;70.90
10121;DHT22;5100;45.176;5.714;2022-10-19T05:29:41;18.40;70.90
10121;DHT22;5100;45.176;5.714;2022-10-19T05:32:07;18.40;70.70
10121;DHT22;5100;45.176;5.714;2022-10-19T05:34:33;18.40;70.50
10121;DHT22;5100;45.176;5.714;2022-10-19T05:36:59;18.40;70.60
10121;DHT22;5100;45.176;5.714;2022-10-19T05:39:25;18.30;70.70
10121;DHT22;5100;45.176;5.714;2022-10-19T05:41:51;18.30;70.80
10121;DHT22;5100;45.176;5.714;2022-10-19T05:44:20;18.30;70.90
10121;DHT22;5100;45.176;5.714;2022-10-19T05:46:47;18.30;71.00
10121;DHT22;5100;45.176;5.714;2022-10-19T05:49:14;18.30;71.10
10121;DHT22;5100;45.176;5.714;2022-10-19T05:51:41;18.30;71.30
10121;DHT22;5100;45.176;5.714;2022-10-19T05:54:07;18.30;71.60
10121;DHT22;5100;45.176;5.714;2022-10-19T05:56:34;18.30;71.80
10121;DHT22;5100;45.176;5.714;2022-10-19T05:59:04;18.20;71.80
10121;DHT22;5100;45.176;5.714;2022-10-19T06:01:31;18.20;71.90
10121;DHT22;5100;45.176;5.714;2022-10-19T06:03:58;18.20;71.90
10121;DHT22;5100;45.176;5.714;2022-10-19T06:06:25;18.20;71.80
10121;DHT22;5100;45.176;5.714;2022-10-19T06:08:52;18.20;71.80
10121;DHT22;5100;45.176;5.714;2022-10-19T06:11:21;18.20;71.80
10121;DHT22;5100;45.176;5.714;2022-10-19T06:13:49;18.20;71.70
10121;DHT22;5100;45.176;5.714;2022-10-19T06:16:17;18.20;71.70
10121;DHT22;5100;45.176;5.714;2022-10-19T06:18:44;18.20;71.60
10121;DHT22;5100;45.176;5.714;2022-10-19T06:21:13;18.20;71.50
10121;DHT22;5100;45.176;5.714;2022-10-19T06:23:40;18.20;71.50
10121;DHT22;5100;45.176;5.714;2022-10-19T06:26:12;18.20;71.30
10121;DHT22;5100;45.176;5.714;2022-10-19T06:28:39;18.20;71.00
10121;DHT22;5100;45.176;5.714;2022-10-19T06:31:07;18.20;70.70
10121;DHT22;5100;45.176;5.714;2022-10-19T06:33:33;18.20;70.30
10121;DHT22;5100;45.176;5.714;2022-10-19T06:36:07;18.20;70.30
10121;DHT22;5100;45.176;5.714;2022-10-19T06:38:33;18.20;70.20
10121;DHT22;5100;45.176;5.714;2022-10-19T06:41:00;18.20;70.00
10121;DHT22;5100;45.176;5.714;2022-10-19T06:43:26;18.20;70.00
10121;DHT22;5100;45.176;5.714;2022-10-19T06:45:53;18.20;70.10
10121;DHT22;5100;45.176;5.714;2022-10-19T06:48:19;18.20;70.60
10121;DHT22;5100;45.176;5.714;2022-10-19T06:50:45;18.20;71.00
10121;DHT22;5100;45.176;5.714;2022-10-19T06:53:11;18.20;71.30
10121;DHT22;5100;45.176;5.714;2022-10-19T06:55:37;18.30;71.50
10121;DHT22;5100;45.176;5.714;2022-10-19T06:58:03;18.30;71.80
10121;DHT22;5100;45.176;5.714;2022-10-19T07:00:30;18.30;72.00
10121;DHT22;5100;45.176;5.714;2022-10-19T07:02:57;18.30;72.20
10121;DHT22;5100;45.176;5.714;2022-10-19T07:05:24;18.40;72.30
10121;DHT22;5100;45.176;5.714;2022-10-19T07:07:50;18.40;72.40
10121;DHT22;5100;45.176;5.714;2022-10-19T07:10:16;18.40;72.30
10121;DHT22;5100;45.176;5.714;2022-10-19T07:12:41;18.40;72.30
10121;DHT22;5100;45.176;5.714;2022-10-19T07:15:08;18.50;72.20
10121;DHT22;5100;45.176;5.714;2022-10-19T07:17:35;18.50;71.80
10121;DHT22;5100;45.176;5.714;2022-10-19T07:20:01;18.60;71.60
10121;DHT22;5100;45.176;5.714;2022-10-19T07:22:27;18.60;71.30
10121;DHT22;5100;45.176;5.714;2022-10-19T07:24:53;18.60;71.00
10121;DHT22;5100;45.176;5.714;2022-10-19T07:27:19;18.60;71.00
10121;DHT22;5100;45.176;5.714;2022-10-19T07:29:45;18.60;70.70
10121;DHT22;5100;45.176;5.714;2022-10-19T07:32:11;18.60;69.80
10121;DHT22;5100;45.176;5.714;2022-10-19T07:34:37;18.60;69.30
10121;DHT22;5100;45.176;5.714;2022-10-19T07:37:04;18.60;69.50
10121;DHT22;5100;45.176;5.714;2022-10-19T07:39:30;18.70;70.40
10121;DHT22;5100;45.176;5.714;2022-10-19T07:41:55;18.70;70.80
10121;DHT22;5100;45.176;5.714;2022-10-19T07:44:22;18.70;71.30
10121;DHT22;5100;45.176;5.714;2022-10-19T07:46:48;18.70;71.60
10121;DHT22;5100;45.176;5.714;2022-10-19T07:49:16;18.70;71.60
10121;DHT22;5100;45.176;5.714;2022-10-19T07:51:44;18.80;71.80
10121;DHT22;5100;45.176;5.714;2022-10-19T07:54:10;18.80;72.00
10121;DHT22;5100;45.176;5.714;2022-10-19T07:56:36;18.80;72.20
10121;DHT22;5100;45.176;5.714;2022-10-19T07:59:03;18.80;72.40
10121;DHT22;5100;45.176;5.714;2022-10-19T08:01:33;18.90;72.60
10121;DHT22;5100;45.176;5.714;2022-10-19T08:04:00;18.90;72.60
10121;DHT22;5100;45.176;5.714;2022-10-19T08:06:26;18.90;72.70
10121;DHT22;5100;45.176;5.714;2022-10-19T08:08:53;19.00;72.70
10121;DHT22;5100;45.176;5.714;2022-10-19T08:11:25;19.00;72.60
10121;DHT22;5100;45.176;5.714;2022-10-19T08:13:52;19.10;72.70
10121;DHT22;5100;45.176;5.714;2022-10-19T08:16:31;19.10;72.70
10121;DHT22;5100;45.176;5.714;2022-10-19T08:19:00;19.10;72.70
10121;DHT22;5100;45.176;5.714;2022-10-19T08:21:27;19.20;72.70
10121;DHT22;5100;45.176;5.714;2022-10-19T08:23:53;19.20;72.80
10121;DHT22;5100;45.176;5.714;2022-10-19T08:26:20;19.20;72.90
10121;DHT22;5100;45.176;5.714;2022-10-19T08:28:46;19.20;73.00
10121;DHT22;5100;45.176;5.714;2022-10-19T08:31:17;19.20;72.90
10121;DHT22;5100;45.176;5.714;2022-10-19T08:33:44;19.30;73.00
10121;DHT22;5100;45.176;5.714;2022-10-19T08:36:12;19.30;72.90
10121;DHT22;5100;45.176;5.714;2022-10-19T08:38:38;19.30;72.90
10121;DHT22;5100;45.176;5.714;2022-10-19T08:41:20;19.30;72.70
10121;DHT22;5100;45.176;5.714;2022-10-19T08:46:40;19.30;72.60
10121;DHT22;5100;45.176;5.714;2022-10-19T08:49:18;19.40;72.60
10121;DHT22;5100;45.176;5.714;2022-10-19T08:51:50;19.40;72.50
10121;DHT22;5100;45.176;5.714;2022-10-19T08:54:18;19.40;72.50
10121;DHT22;5100;45.176;5.714;2022-10-19T08:57:06;19.40;72.60
10121;DHT22;5100;45.176;5.714;2022-10-19T08:59:51;19.40;72.50
10121;DHT22;5100;45.176;5.714;2022-10-19T09:02:42;19.40;72.20
10121;DHT22;5100;45.176;5.714;2022-10-19T09:07:54;19.50;71.90
10121;DHT22;5100;45.176;5.714;2022-10-19T09:10:37;19.50;71.90
10121;DHT22;5100;45.176;5.714;2022-10-19T09:13:36;19.50;72.00
10121;DHT22;5100;45.176;5.714;2022-10-19T09:16:05;19.50;72.20
10121;DHT22;5100;45.176;5.714;2022-10-19T09:18:33;19.50;72.10
10121;DHT22;5100;45.176;5.714;2022-10-19T09:21:08;19.50;72.20
10121;DHT22;5100;45.176;5.714;2022-10-19T09:23:46;19.60;72.10
10121;DHT22;5100;45.176;5.714;2022-10-19T09:26:17;19.60;71.50
10121;DHT22;5100;45.176;5.714;2022-10-19T09:29:05;19.60;71.40
10121;DHT22;5100;45.176;5.714;2022-10-19T09:31:40;19.70;71.00
10121;DHT22;5100;45.176;5.714;2022-10-19T09:34:28;19.70;71.20
10121;DHT22;5100;45.176;5.714;2022-10-19T09:36:56;19.70;71.00
10121;DHT22;5100;45.176;5.714;2022-10-19T09:39:25;19.70;70.50
10121;DHT22;5100;45.176;5.714;2022-10-19T09:44:44;19.90;69.70
10121;DHT22;5100;45.176;5.714;2022-10-19T09:47:33;19.90;69.30
10121;DHT22;5100;45.176;5.714;2022-10-19T09:50:24;20.00;69.10
10121;DHT22;5100;45.176;5.714;2022-10-19T09:52:52;20.00;68.90
10121;DHT22;5100;45.176;5.714;2022-10-19T10:00:47;20.10;69.00
10121;DHT22;5100;45.176;5.714;2022-10-19T10:06:06;20.20;69.00
10121;DHT22;5100;45.176;5.714;2022-10-19T10:08:36;20.20;68.90
10121;DHT22;5100;45.176;5.714;2022-10-19T10:11:05;20.20;68.80
10121;DHT22;5100;45.176;5.714;2022-10-19T10:13:36;20.30;68.20
10121;DHT22;5100;45.176;5.714;2022-10-19T10:16:04;20.30;67.90
10121;DHT22;5100;45.176;5.714;2022-10-19T10:18:35;20.30;67.70
10121;DHT22;5100;45.176;5.714;2022-10-19T10:23:36;20.40;67.60
10121;DHT22;5100;45.176;5.714;2022-10-19T10:26:05;20.40;67.40
10121;DHT22;5100;45.176;5.714;2022-10-19T10:28:46;20.40;67.20
10121;DHT22;5100;45.176;5.714;2022-10-19T10:31:13;20.50;67.30
10121;DHT22;5100;45.176;5.714;2022-10-19T10:33:40;20.50;67.10
10121;DHT22;5100;45.176;5.714;2022-10-19T10:36:07;20.50;67.10
10121;DHT22;5100;45.176;5.714;2022-10-19T10:39:02;20.60;67.30
10121;DHT22;5100;45.176;5.714;2022-10-19T10:41:25;20.60;66.80
10121;DHT22;5100;45.176;5.714;2022-10-19T10:44:01;20.60;66.80
10121;DHT22;5100;45.176;5.714;2022-10-19T10:46:49;20.70;66.60
10121;DHT22;5100;45.176;5.714;2022-10-19T10:49:21;20.70;66.70
10121;DHT22;5100;45.176;5.714;2022-10-19T10:51:51;20.70;66.20
10121;DHT22;5100;45.176;5.714;2022-10-19T10:54:19;20.70;65.90
10121;DHT22;5100;45.176;5.714;2022-10-19T10:57:18;20.70;65.70
10121;DHT22;5100;45.176;5.714;2022-10-19T10:59:53;20.70;66.10
10121;DHT22;5100;45.176;5.714;2022-10-19T11:02:51;20.80;65.90
10121;DHT22;5100;45.176;5.714;2022-10-19T11:05:33;20.80;66.10
10121;DHT22;5100;45.176;5.714;2022-10-19T11:10:48;20.80;66.30
10121;DHT22;5100;45.176;5.714;2022-10-19T11:16:16;20.80;66.40
10121;DHT22;5100;45.176;5.714;2022-10-19T11:19:01;20.90;66.30
10121;DHT22;5100;45.176;5.714;2022-10-19T11:21:36;20.90;66.20
10121;DHT22;5100;45.176;5.714;2022-10-19T11:24:30;20.90;66.10
10121;DHT22;5100;45.176;5.714;2022-10-19T11:27:01;20.90;66.10
10121;DHT22;5100;45.176;5.714;2022-10-19T11:29:37;20.90;66.20
10121;DHT22;5100;45.176;5.714;2022-10-19T11:32:28;20.90;66.10
10121;DHT22;5100;45.176;5.714;2022-10-19T11:40:42;21.00;65.10
10121;DHT22;5100;45.176;5.714;2022-10-19T11:46:07;21.10;64.00
10121;DHT22;5100;45.176;5.714;2022-10-19T11:49:03;21.20;63.60
10121;DHT22;5100;45.176;5.714;2022-10-19T11:51:45;21.20;63.70
10121;DHT22;5100;45.176;5.714;2022-10-19T12:08:02;21.40;61.90
10121;DHT22;5100;45.176;5.714;2022-10-19T12:13:18;21.50;61.80
10121;DHT22;5100;45.176;5.714;2022-10-19T12:15:52;21.50;62.00
10121;DHT22;5100;45.176;5.714;2022-10-19T12:18:33;21.60;62.30
10121;DHT22;5100;45.176;5.714;2022-10-19T12:21:07;21.60;61.90
10121;DHT22;5100;45.176;5.714;2022-10-19T12:23:37;21.60;62.50
10121;DHT22;5100;45.176;5.714;2022-10-19T12:26:09;21.70;62.80
10121;DHT22;5100;45.176;5.714;2022-10-19T12:28:41;21.70;63.20
10121;DHT22;5100;45.176;5.714;2022-10-19T12:31:09;21.80;63.50
10121;DHT22;5100;45.176;5.714;2022-10-19T12:41:58;21.80;64.00
10121;DHT22;5100;45.176;5.714;2022-10-19T12:47:11;21.80;64.80
10121;DHT22;5100;45.176;5.714;2022-10-19T12:49:53;21.90;65.10
10121;DHT22;5100;45.176;5.714;2022-10-19T12:52:44;21.90;65.10
10121;DHT22;5100;45.176;5.714;2022-10-19T12:57:47;21.90;65.50
10121;DHT22;5100;45.176;5.714;2022-10-19T13:00:23;21.90;65.70
10121;DHT22;5100;45.176;5.714;2022-10-19T13:03:03;21.90;64.90
10121;DHT22;5100;45.176;5.714;2022-10-19T13:05:30;21.90;64.10
10121;DHT22;5100;45.176;5.714;2022-10-19T13:08:00;21.90;63.90
10121;DHT22;5100;45.176;5.714;2022-10-19T13:10:27;21.90;63.60
10121;DHT22;5100;45.176;5.714;2022-10-19T13:12:54;21.90;63.00
10121;DHT22;5100;45.176;5.714;2022-10-19T13:18:13;22.00;63.20
10121;DHT22;5100;45.176;5.714;2022-10-19T13:20:52;22.00;63.60
10121;DHT22;5100;45.176;5.714;2022-10-19T13:26:30;22.10;64.00
10121;DHT22;5100;45.176;5.714;2022-10-19T13:28:57;22.10;63.90
10121;DHT22;5100;45.176;5.714;2022-10-19T13:31:27;22.10;63.80
10121;DHT22;5100;45.176;5.714;2022-10-19T13:33:53;22.20;63.80
10121;DHT22;5100;45.176;5.714;2022-10-19T13:36:20;22.20;64.10
10121;DHT22;5100;45.176;5.714;2022-10-19T13:39:01;22.20;64.20
10121;DHT22;5100;45.176;5.714;2022-10-19T14:00:18;22.20;65.00
10121;DHT22;5100;45.176;5.714;2022-10-19T14:06:12;22.20;65.00
10121;DHT22;5100;45.176;5.714;2022-10-19T14:14:15;22.20;65.10
10121;DHT22;5100;45.176;5.714;2022-10-19T14:16:56;22.20;65.10
10121;DHT22;5100;45.176;5.714;2022-10-19T14:19:29;22.20;64.90
10121;DHT22;5100;45.176;5.714;2022-10-19T14:22:00;22.20;64.90
10121;DHT22;5100;45.176;5.714;2022-10-19T14:26:55;22.20;64.80
10121;DHT22;5100;45.176;5.714;2022-10-19T14:29:21;22.20;64.90
10121;DHT22;5100;45.176;5.714;2022-10-19T14:31:47;22.20;64.80
10121;DHT22;5100;45.176;5.714;2022-10-19T14:34:13;22.20;64.70
10121;DHT22;5100;45.176;5.714;2022-10-19T14:36:47;22.20;64.60
10121;DHT22;5100;45.176;5.714;2022-10-19T14:39:29;22.20;64.60
10121;DHT22;5100;45.176;5.714;2022-10-19T14:41:56;22.20;64.60
10121;DHT22;5100;45.176;5.714;2022-10-19T14:44:41;22.20;64.60
10121;DHT22;5100;45.176;5.714;2022-10-19T14:47:34;22.20;64.40
10121;DHT22;5100;45.176;5.714;2022-10-19T14:50:01;22.20;64.40
10121;DHT22;5100;45.176;5.714;2022-10-19T14:52:36;22.20;64.40
10121;DHT22;5100;45.176;5.714;2022-10-19T14:55:12;22.20;64.60
10121;DHT22;5100;45.176;5.714;2022-10-19T14:57:40;22.20;64.90
10121;DHT22;5100;45.176;5.714;2022-10-19T15:00:16;22.20;64.90
10121;DHT22;5100;45.176;5.714;2022-10-19T15:02:46;22.20;65.20
10121;DHT22;5100;45.176;5.714;2022-10-19T15:05:21;22.20;65.50
10121;DHT22;5100;45.176;5.714;2022-10-19T15:07:48;22.30;65.70
10121;DHT22;5100;45.176;5.714;2022-10-19T15:10:23;22.30;65.80
10121;DHT22;5100;45.176;5.714;2022-10-19T15:12:55;22.30;65.80
10121;DHT22;5100;45.176;5.714;2022-10-19T15:15:27;22.30;66.60
10121;DHT22;5100;45.176;5.714;2022-10-19T15:20:32;22.30;67.50
10121;DHT22;5100;45.176;5.714;2022-10-19T15:23:00;22.30;67.80
10121;DHT22;5100;45.176;5.714;2022-10-19T15:25:31;22.30;68.00
10121;DHT22;5100;45.176;5.714;2022-10-19T15:28:30;22.30;68.20
10121;DHT22;5100;45.176;5.714;2022-10-19T15:31:04;22.30;68.40
10121;DHT22;5100;45.176;5.714;2022-10-19T15:33:36;22.30;68.60
10121;DHT22;5100;45.176;5.714;2022-10-19T15:36:08;22.30;68.50
10121;DHT22;5100;45.176;5.714;2022-10-19T15:38:44;22.30;68.50
10121;DHT22;5100;45.176;5.714;2022-10-19T15:41:19;22.30;68.50
10121;DHT22;5100;45.176;5.714;2022-10-19T15:43:51;22.30;68.30
10121;DHT22;5100;45.176;5.714;2022-10-19T15:51:48;22.20;68.20
10121;DHT22;5100;45.176;5.714;2022-10-19T15:54:15;22.20;68.10
10121;DHT22;5100;45.176;5.714;2022-10-19T15:56:43;22.20;68.10
10121;DHT22;5100;45.176;5.714;2022-10-19T15:59:16;22.20;68.10
10121;DHT22;5100;45.176;5.714;2022-10-19T16:01:43;22.20;68.10
10121;DHT22;5100;45.176;5.714;2022-10-19T16:04:10;22.10;68.10
10121;DHT22;5100;45.176;5.714;2022-10-19T16:06:38;22.10;68.20
10121;DHT22;5100;45.176;5.714;2022-10-19T16:09:05;22.10;68.30
10121;DHT22;5100;45.176;5.714;2022-10-19T16:11:32;22.10;68.40
10121;DHT22;5100;45.176;5.714;2022-10-19T16:14:00;22.10;68.60
10121;DHT22;5100;45.176;5.714;2022-10-19T16:16:31;22.10;69.00
10121;DHT22;5100;45.176;5.714;2022-10-19T16:18:58;22.00;69.30
10121;DHT22;5100;45.176;5.714;2022-10-19T16:21:28;22.00;69.10
10121;DHT22;5100;45.176;5.714;2022-10-19T16:23:55;22.00;69.30
10121;DHT22;5100;45.176;5.714;2022-10-19T16:26:22;22.00;69.40
10121;DHT22;5100;45.176;5.714;2022-10-19T16:28:50;22.00;69.40
10121;DHT22;5100;45.176;5.714;2022-10-19T16:31:16;21.90;69.40
10121;DHT22;5100;45.176;5.714;2022-10-19T16:33:43;21.90;69.30
10121;DHT22;5100;45.176;5.714;2022-10-19T16:36:09;21.90;69.40
10121;DHT22;5100;45.176;5.714;2022-10-19T16:38:35;21.90;69.60
10121;DHT22;5100;45.176;5.714;2022-10-19T16:41:05;21.90;69.80
10121;DHT22;5100;45.176;5.714;2022-10-19T16:43:32;21.80;70.00
10121;DHT22;5100;45.176;5.714;2022-10-19T16:45:58;21.80;70.20
10121;DHT22;5100;45.176;5.714;2022-10-19T16:48:25;21.80;70.40
10121;DHT22;5100;45.176;5.714;2022-10-19T16:51:19;21.80;70.40
10121;DHT22;5100;45.176;5.714;2022-10-19T16:53:50;21.70;70.60
10121;DHT22;5100;45.176;5.714;2022-10-19T16:56:17;21.70;70.80
10121;DHT22;5100;45.176;5.714;2022-10-19T16:58:43;21.70;70.90
10121;DHT22;5100;45.176;5.714;2022-10-19T17:01:14;21.70;71.10
10121;DHT22;5100;45.176;5.714;2022-10-19T17:03:41;21.60;71.30
10121;DHT22;5100;45.176;5.714;2022-10-19T17:06:08;21.60;71.50
10121;DHT22;5100;45.176;5.714;2022-10-19T17:08:35;21.60;71.70
10121;DHT22;5100;45.176;5.714;2022-10-19T17:13:40;21.60;72.00
10121;DHT22;5100;45.176;5.714;2022-10-19T17:16:06;21.60;72.00
10121;DHT22;5100;45.176;5.714;2022-10-19T17:18:32;21.60;72.20
10121;DHT22;5100;45.176;5.714;2022-10-19T17:21:16;21.50;72.30
10121;DHT22;5100;45.176;5.714;2022-10-19T17:23:42;21.50;72.40
10121;DHT22;5100;45.176;5.714;2022-10-19T17:26:10;21.50;72.30
10121;DHT22;5100;45.176;5.714;2022-10-19T17:28:37;21.50;72.20
10121;DHT22;5100;45.176;5.714;2022-10-19T17:31:11;21.40;72.00
10121;DHT22;5100;45.176;5.714;2022-10-19T17:33:39;21.40;72.00
10121;DHT22;5100;45.176;5.714;2022-10-19T17:36:08;21.40;71.80
10121;DHT22;5100;45.176;5.714;2022-10-19T17:38:36;21.40;71.40
10121;DHT22;5100;45.176;5.714;2022-10-19T17:41:06;21.30;71.20
10121;DHT22;5100;45.176;5.714;2022-10-19T17:43:32;21.30;71.00
10121;DHT22;5100;45.176;5.714;2022-10-19T17:45:59;21.30;70.90
10121;DHT22;5100;45.176;5.714;2022-10-19T17:48:26;21.30;70.80
10121;DHT22;5100;45.176;5.714;2022-10-19T17:50:57;21.30;70.80
10121;DHT22;5100;45.176;5.714;2022-10-19T17:53:23;21.30;70.90
10121;DHT22;5100;45.176;5.714;2022-10-19T17:55:49;21.20;70.90
10121;DHT22;5100;45.176;5.714;2022-10-19T17:58:17;21.20;71.00
10121;DHT22;5100;45.176;5.714;2022-10-19T18:00:43;21.20;71.00
10121;DHT22;5100;45.176;5.714;2022-10-19T18:03:09;21.20;70.90
10121;DHT22;5100;45.176;5.714;2022-10-19T18:05:35;21.20;71.00
10121;DHT22;5100;45.176;5.714;2022-10-19T18:08:01;21.10;71.10
10121;DHT22;5100;45.176;5.714;2022-10-19T18:10:28;21.10;71.10
10121;DHT22;5100;45.176;5.714;2022-10-19T18:12:54;21.10;71.10
10121;DHT22;5100;45.176;5.714;2022-10-19T18:15:19;21.10;71.10
10121;DHT22;5100;45.176;5.714;2022-10-19T18:17:46;21.10;71.10
10121;DHT22;5100;45.176;5.714;2022-10-19T18:20:12;21.00;71.20